Time;durP1;ratioP1;P1;durP2;ratioP2;P2;SDS_P1;SDS_P2;PMS_P1;PMS_P2;Temp;Humidity;BMP_temperature;BMP_pressure;BME280_temperature;BME280_humidity;BME280_pressure;Samples;Min_cycle;Max_cycle;Signal;HPM_P1;HPM_P2
2021/10/19 00:00:34;;;;;;;11.65;7.07;;;7.20;96.70;;;;;;6186991;23;20004;-89
2021/10/19 00:03:01;;;;;;;21.90;10.40;;;7.10;96.90;;;;;;6187135;23;20001;-89
2021/10/19 00:05:27;;;;;;;14.70;8.50;;;7.10;97.10;;;;;;6186753;23;20015;-89
2021/10/19 00:07:53;;;;;;;18.10;9.68;;;7.00;97.00;;;;;;6187169;23;20462;-89
2021/10/19 00:10:20;;;;;;;11.82;7.35;;;7.00;97.10;;;;;;6186978;23;20001;-90
2021/10/19 00:12:47;;;;;;;16.02;8.05;;;7.00;97.30;;;;;;6187003;23;20016;-89
2021/10/19 00:15:14;;;;;;;14.57;7.80;;;6.90;97.30;;;;;;6186942;23;20005;-89
2021/10/19 00:17:43;;;;;;;12.82;7.38;;;6.80;97.40;;;;;;6187377;23;20005;-89
2021/10/19 00:20:10;;;;;;;15.77;8.25;;;6.80;97.50;;;;;;6187060;23;20035;-89
2021/10/19 00:22:36;;;;;;;12.40;7.03;;;6.80;97.70;;;;;;6191890;23;20012;-89
2021/10/19 00:25:06;;;;;;;11.05;6.78;;;6.70;97.60;;;;;;6191637;23;20015;-89
2021/10/19 00:27:35;;;;;;;14.07;8.55;;;6.70;97.70;;;;;;6218769;23;19993;-89
2021/10/19 00:30:05;;;;;;;12.32;6.75;;;6.60;97.90;;;;;;6192468;23;20001;-89
2021/10/19 00:32:31;;;;;;;16.40;9.30;;;6.60;97.90;;;;;;6191832;23;19993;-89
2021/10/19 00:34:57;;;;;;;12.13;7.35;;;6.60;98.20;;;;;;6191586;23;20092;-89
2021/10/19 00:37:23;;;;;;;11.82;7.93;;;6.50;98.00;;;;;;6191614;23;20000;-90
2021/10/19 00:39:49;;;;;;;14.95;10.00;;;6.50;98.20;;;;;;6192338;23;20088;-90
2021/10/19 00:42:14;;;;;;;12.77;7.35;;;6.50;98.60;;;;;;6191593;23;20055;-89
2021/10/19 00:44:40;;;;;;;11.77;7.47;;;6.50;98.60;;;;;;6192044;23;20004;-89
2021/10/19 00:47:06;;;;;;;13.80;6.88;;;6.50;98.70;;;;;;6191918;23;20000;-89
2021/10/19 00:49:32;;;;;;;18.25;7.95;;;6.50;98.60;;;;;;6191453;23;20028;-89
2021/10/19 00:51:59;;;;;;;17.48;9.18;;;6.60;98.90;;;;;;6191211;23;20047;-90
2021/10/19 00:54:25;;;;;;;13.15;8.00;;;6.60;98.90;;;;;;6191610;23;20428;-90
2021/10/19 00:56:55;;;;;;;13.20;7.97;;;6.70;98.90;;;;;;6191508;23;20023;-89
2021/10/19 00:59:22;;;;;;;11.38;7.60;;;6.80;99.00;;;;;;6191917;23;20020;-89
2021/10/19 01:01:48;;;;;;;16.42;7.55;;;6.80;98.90;;;;;;6191258;23;20039;-89
2021/10/19 01:04:16;;;;;;;11.35;6.95;;;6.80;98.80;;;;;;6217950;23;20001;-89
2021/10/19 01:06:42;;;;;;;12.02;8.43;;;6.90;98.60;;;;;;6191261;23;20011;-89
2021/10/19 01:09:12;;;;;;;19.58;9.23;;;7.00;98.60;;;;;;6191382;23;19997;-89
2021/10/19 01:11:38;;;;;;;12.93;7.43;;;7.00;98.60;;;;;;6191438;23;20001;-89
2021/10/19 01:14:07;;;;;;;13.85;8.35;;;7.10;98.60;;;;;;6217881;23;20315;-89
2021/10/19 01:16:32;;;;;;;16.05;7.35;;;7.10;98.40;;;;;;6191307;23;20044;-90
2021/10/19 01:18:58;;;;;;;14.20;7.63;;;7.10;98.50;;;;;;6191574;23;20001;-90
2021/10/19 01:21:24;;;;;;;16.67;8.13;;;7.20;98.50;;;;;;6186708;23;20436;-89
2021/10/19 01:23:50;;;;;;;14.70;8.10;;;7.20;98.50;;;;;;6187611;23;20301;-89
2021/10/19 01:26:15;;;;;;;10.15;6.65;;;7.20;98.40;;;;;;6187827;23;20005;-89
2021/10/19 01:28:42;;;;;;;14.80;8.88;;;7.20;98.40;;;;;;6186489;23;20001;-89
2021/10/19 01:31:11;;;;;;;17.83;9.48;;;7.20;98.30;;;;;;6186617;23;20001;-88
2021/10/19 01:33:38;;;;;;;15.50;9.20;;;7.20;98.50;;;;;;6186456;23;20005;-89
2021/10/19 01:36:08;;;;;;;14.15;7.80;;;7.30;98.50;;;;;;6188156;23;20001;-89
2021/10/19 01:38:34;;;;;;;22.60;10.43;;;7.20;98.60;;;;;;6186218;23;20004;-89
2021/10/19 01:41:02;;;;;;;15.75;8.75;;;7.20;98.60;;;;;;6187634;23;20024;-89
2021/10/19 01:43:29;;;;;;;21.17;9.32;;;7.20;98.60;;;;;;6187719;23;20007;-89
2021/10/19 01:45:58;;;;;;;15.20;9.80;;;7.20;98.70;;;;;;6185855;23;20001;-89
2021/10/19 01:48:25;;;;;;;19.75;9.23;;;7.20;98.70;;;;;;6187262;23;19997;-89
2021/10/19 01:50:51;;;;;;;16.63;9.00;;;7.20;98.70;;;;;;6186054;23;20444;-89
2021/10/19 01:53:19;;;;;;;15.52;9.50;;;7.10;98.80;;;;;;6186069;23;20001;-89
2021/10/19 01:55:44;;;;;;;11.73;6.53;;;7.10;98.80;;;;;;6185942;23;20016;-89
2021/10/19 01:58:11;;;;;;;15.05;7.40;;;7.10;98.70;;;;;;6185928;23;20001;-89
2021/10/19 02:00:38;;;;;;;12.52;7.78;;;7.00;98.90;;;;;;6186144;23;20033;-89
2021/10/19 02:03:05;;;;;;;12.13;8.75;;;7.00;98.80;;;;;;6185737;23;20001;-89
2021/10/19 02:05:31;;;;;;;12.00;6.15;;;6.90;98.80;;;;;;6186201;23;20040;-89
2021/10/19 02:07:58;;;;;;;12.40;7.05;;;6.90;98.70;;;;;;6186249;23;20024;-89
2021/10/19 02:10:24;;;;;;;8.20;5.30;;;6.80;98.90;;;;;;6186098;23;20046;-89
2021/10/19 02:12:49;;;;;;;15.60;6.78;;;6.80;98.80;;;;;;6185491;23;20045;-89
2021/10/19 02:15:15;;;;;;;14.50;6.75;;;6.70;98.90;;;;;;6185925;23;20005;-89
2021/10/19 02:17:41;;;;;;;12.57;7.70;;;6.60;99.10;;;;;;6185726;23;20005;-89
2021/10/19 02:20:08;;;;;;;14.20;8.07;;;6.60;99.40;;;;;;6186301;23;20001;-89
2021/10/19 02:22:34;;;;;;;10.18;6.53;;;6.60;99.60;;;;;;6190502;23;20437;-90
2021/10/19 02:25:00;;;;;;;12.77;7.07;;;6.50;99.60;;;;;;6190664;23;20035;-90
2021/10/19 02:27:26;;;;;;;15.73;7.85;;;6.50;99.60;;;;;;6190610;23;20050;-89
2021/10/19 02:29:52;;;;;;;12.70;7.00;;;6.50;99.60;;;;;;6190615;23;19997;-89
2021/10/19 02:32:18;;;;;;;15.70;8.18;;;6.50;99.70;;;;;;6190790;23;20005;-90
2021/10/19 02:34:45;;;;;;;12.25;6.55;;;6.40;99.60;;;;;;6190462;23;20004;-89
2021/10/19 02:37:11;;;;;;;10.88;7.22;;;6.40;99.70;;;;;;6190638;23;20062;-89
2021/10/19 02:39:38;;;;;;;15.18;8.60;;;6.40;99.80;;;;;;6216777;23;19997;-89
2021/10/19 02:42:04;;;;;;;12.52;7.10;;;6.40;99.90;;;;;;6190730;23;20005;-89
2021/10/19 02:44:29;;;;;;;12.32;6.90;;;6.40;99.90;;;;;;6190418;23;20012;-89
2021/10/19 02:46:55;;;;;;;14.93;6.93;;;6.40;99.90;;;;;;6190511;23;19997;-89
2021/10/19 02:49:21;;;;;;;13.32;7.35;;;6.40;99.90;;;;;;6190572;23;20055;-89
2021/10/19 02:51:47;;;;;;;10.75;6.88;;;6.30;99.90;;;;;;6190525;23;19997;-89
2021/10/19 02:54:12;;;;;;;15.00;7.32;;;6.30;99.90;;;;;;6190460;23;20407;-89
2021/10/19 02:56:39;;;;;;;16.65;6.95;;;6.30;99.90;;;;;;6190334;23;20000;-89
2021/10/19 02:59:05;;;;;;;14.13;8.32;;;6.30;99.90;;;;;;6190476;23;20005;-89
2021/10/19 03:01:32;;;;;;;16.55;9.23;;;6.30;99.90;;;;;;6190441;23;19996;-89
2021/10/19 03:03:58;;;;;;;12.95;5.75;;;6.20;99.90;;;;;;6190312;23;20017;-89
2021/10/19 03:06:24;;;;;;;10.35;6.15;;;6.10;99.90;;;;;;6190209;23;20008;-89
2021/10/19 03:08:49;;;;;;;9.68;5.93;;;6.00;99.90;;;;;;6190407;23;20051;-89
2021/10/19 03:11:15;;;;;;;10.30;5.38;;;6.00;99.90;;;;;;6190482;23;20008;-89
2021/10/19 03:13:41;;;;;;;12.95;7.32;;;5.90;99.90;;;;;;6216807;23;20440;-90
2021/10/19 03:16:07;;;;;;;12.73;7.13;;;5.90;99.90;;;;;;6217036;23;20043;-89
2021/10/19 03:18:35;;;;;;;16.38;7.50;;;5.80;99.90;;;;;;6189941;23;19996;-89
2021/10/19 03:21:07;;;;;;;13.02;7.00;;;5.80;99.90;;;;;;6187921;23;20009;-87
2021/10/19 03:23:32;;;;;;;16.33;9.18;;;5.70;99.90;;;;;;6194590;23;20058;-87
2021/10/19 03:25:58;;;;;;;21.20;7.65;;;5.70;99.90;;;;;;6195311;23;20005;-87
2021/10/19 03:28:24;;;;;;;11.75;6.95;;;5.60;99.90;;;;;;6187195;23;20005;-90
2021/10/19 03:30:50;;;;;;;10.35;5.95;;;5.60;99.90;;;;;;6186063;23;20011;-90
2021/10/19 03:33:15;;;;;;;14.02;6.45;;;5.50;99.90;;;;;;6185195;23;20057;-89
2021/10/19 03:35:41;;;;;;;13.35;6.13;;;5.40;99.90;;;;;;6186783;23;20050;-89
2021/10/19 03:38:07;;;;;;;14.07;6.82;;;5.30;99.90;;;;;;6185309;23;19997;-89
2021/10/19 03:40:33;;;;;;;12.43;6.55;;;5.30;99.90;;;;;;6185315;23;19997;-88
2021/10/19 03:42:59;;;;;;;14.25;5.70;;;5.20;99.90;;;;;;6185161;23;20031;-89
2021/10/19 03:45:24;;;;;;;14.38;7.50;;;5.20;99.90;;;;;;6185227;23;20329;-89
2021/10/19 03:47:50;;;;;;;15.00;6.57;;;5.10;99.90;;;;;;6185158;23;20048;-89
2021/10/19 03:50:16;;;;;;;14.02;7.35;;;5.00;99.90;;;;;;6184049;23;20052;-89
2021/10/19 03:52:42;;;;;;;12.70;5.82;;;5.00;99.90;;;;;;6185290;23;20009;-89
2021/10/19 03:55:09;;;;;;;11.25;6.60;;;4.90;99.90;;;;;;6185156;23;20002;-90
2021/10/19 03:57:39;;;;;;;10.95;6.40;;;4.90;99.90;;;;;;6184977;23;20083;-90
2021/10/19 04:00:06;;;;;;;18.52;6.88;;;4.80;99.90;;;;;;6185049;23;20001;-90
2021/10/19 04:02:32;;;;;;;11.38;6.63;;;4.80;99.90;;;;;;6185036;23;20005;-90
2021/10/19 04:04:57;;;;;;;12.02;7.18;;;4.70;99.90;;;;;;6185067;23;20005;-90
2021/10/19 04:07:23;;;;;;;12.60;6.85;;;4.70;99.90;;;;;;6185615;23;20006;-90
2021/10/19 04:09:49;;;;;;;15.32;7.65;;;4.70;99.90;;;;;;6185678;23;20055;-90
2021/10/19 04:12:14;;;;;;;14.18;7.65;;;4.60;99.90;;;;;;6186909;23;20151;-90
2021/10/19 04:14:40;;;;;;;23.15;7.97;;;4.60;99.90;;;;;;6187074;23;20004;-90
2021/10/19 04:17:09;;;;;;;11.07;5.78;;;4.50;99.90;;;;;;6186850;23;20035;-90
2021/10/19 04:19:35;;;;;;;18.55;8.27;;;4.50;99.90;;;;;;6187908;23;20028;-90
2021/10/19 04:22:01;;;;;;;14.30;6.50;;;4.50;99.90;;;;;;6186597;23;20424;-90
2021/10/19 04:24:27;;;;;;;10.80;6.45;;;4.40;99.90;;;;;;6186772;23;20081;-90
2021/10/19 04:26:52;;;;;;;15.73;8.57;;;4.40;99.90;;;;;;6186613;23;20005;-89
2021/10/19 04:29:18;;;;;;;12.85;6.47;;;4.40;99.90;;;;;;6186207;23;20013;-90
2021/10/19 04:31:44;;;;;;;13.75;6.38;;;4.30;99.90;;;;;;6187087;23;20016;-89
2021/10/19 04:34:32;;;;;;;;;;;;;;;;;;;;;
2021/10/19 04:36:58;;;;;;;13.32;7.50;;;4.30;99.90;;;;;;6188006;23;20378;-90
2021/10/19 04:39:24;;;;;;;15.20;7.05;;;4.30;99.90;;;;;;6186284;23;20036;-90
2021/10/19 04:41:51;;;;;;;15.75;7.82;;;4.30;99.90;;;;;;6186503;23;20417;-90
2021/10/19 04:44:17;;;;;;;10.93;7.68;;;4.30;99.90;;;;;;6187158;23;20011;-90
2021/10/19 04:46:43;;;;;;;15.82;8.05;;;4.40;99.90;;;;;;6186621;23;20084;-90
2021/10/19 04:49:09;;;;;;;16.60;8.60;;;4.40;99.90;;;;;;6188146;23;20008;-90
2021/10/19 04:51:35;;;;;;;15.40;8.05;;;4.40;99.90;;;;;;6185977;23;20008;-90
2021/10/19 04:54:01;;;;;;;12.75;7.53;;;4.40;99.90;;;;;;6186284;23;20028;-90
2021/10/19 04:56:26;;;;;;;14.30;8.02;;;4.50;99.90;;;;;;6185807;23;20009;-89
2021/10/19 04:58:52;;;;;;;13.57;7.03;;;4.50;99.90;;;;;;6185983;23;20004;-90
2021/10/19 05:01:18;;;;;;;12.20;7.57;;;4.50;99.90;;;;;;6186219;23;20071;-89
2021/10/19 05:03:46;;;;;;;13.60;6.93;;;4.60;99.90;;;;;;6185486;23;20361;-90
2021/10/19 05:06:18;;;;;;;10.75;6.35;;;4.60;99.90;;;;;;6184011;23;20447;-90
2021/10/19 05:08:44;;;;;;;11.85;6.28;;;4.60;99.90;;;;;;6186497;23;20096;-90
2021/10/19 05:11:10;;;;;;;13.30;7.03;;;4.70;99.90;;;;;;6186024;23;20017;-89
2021/10/19 05:13:36;;;;;;;10.95;6.35;;;4.80;99.90;;;;;;6185468;23;20121;-89
2021/10/19 05:16:12;;;;;;;;;;;;;;;;;;;;;
2021/10/19 05:18:38;;;;;;;11.35;6.18;;;4.90;99.90;;;;;;6187909;23;20083;-90
2021/10/19 05:21:05;;;;;;;10.32;5.88;;;5.00;99.90;;;;;;6185766;23;20412;-90
2021/10/19 05:23:32;;;;;;;10.07;6.07;;;5.00;99.90;;;;;;6185830;23;20036;-90
2021/10/19 05:25:59;;;;;;;9.68;5.88;;;5.10;99.90;;;;;;6185405;23;20025;-90
2021/10/19 05:28:24;;;;;;;8.45;5.68;;;5.20;99.90;;;;;;6185287;23;20005;-89
2021/10/19 05:30:50;;;;;;;8.05;4.85;;;5.30;99.90;;;;;;6186600;23;20005;-89
2021/10/19 05:33:23;;;;;;;10.35;5.50;;;5.40;99.90;;;;;;6186436;23;20009;-89
2021/10/19 05:35:52;;;;;;;12.38;5.70;;;5.50;99.90;;;;;;6189711;23;20001;-90
2021/10/19 05:38:21;;;;;;;5.75;3.92;;;5.60;99.90;;;;;;6187368;23;20008;-89
2021/10/19 05:40:46;;;;;;;9.02;4.65;;;5.70;99.90;;;;;;6186348;23;20310;-89
2021/10/19 05:43:14;;;;;;;10.82;7.07;;;5.80;99.90;;;;;;6186425;23;20009;-89
2021/10/19 05:45:40;;;;;;;10.32;5.70;;;5.80;99.90;;;;;;6185859;23;20084;-91
2021/10/19 05:48:06;;;;;;;11.35;6.03;;;5.90;99.90;;;;;;6185567;23;20507;-91
2021/10/19 05:50:42;;;;;;;12.68;5.60;;;6.00;99.90;;;;;;6190855;23;20467;-90
2021/10/19 05:53:07;;;;;;;9.02;5.20;;;6.10;99.90;;;;;;6203525;23;20020;-90
2021/10/19 05:55:33;;;;;;;10.25;6.57;;;6.20;99.90;;;;;;6210175;23;20001;-89
2021/10/19 05:58:02;;;;;;;10.75;5.80;;;6.30;99.90;;;;;;6210319;23;20028;-90
2021/10/19 06:00:28;;;;;;;9.68;6.03;;;6.40;99.90;;;;;;6210105;23;19997;-92
2021/10/19 06:02:54;;;;;;;7.22;5.28;;;6.40;99.90;;;;;;6209696;23;20016;-89
2021/10/19 06:05:22;;;;;;;11.82;6.43;;;6.50;99.90;;;;;;6206850;23;20002;-89
2021/10/19 06:07:51;;;;;;;10.55;6.82;;;6.70;99.90;;;;;;6191887;23;20004;-91
2021/10/19 06:10:21;;;;;;;9.30;6.47;;;6.80;99.90;;;;;;6187687;23;20008;-90
2021/10/19 06:13:03;;;;;;;;;;;;;;;;;;;;;
2021/10/19 06:15:32;;;;;;;9.90;5.97;;;7.10;99.90;;;;;;6187800;23;20085;-89
2021/10/19 06:18:09;;;;;;;10.45;6.60;;;7.20;99.90;;;;;;6185913;23;20028;-90
2021/10/19 06:20:48;;;;;;;9.85;6.03;;;7.30;99.90;;;;;;6191196;23;20012;-88
2021/10/19 06:23:14;;;;;;;10.88;6.75;;;7.40;99.90;;;;;;6216573;23;20016;-90
2021/10/19 06:25:40;;;;;;;11.18;7.00;;;7.40;99.90;;;;;;6164745;23;20005;-89
2021/10/19 06:28:06;;;;;;;12.25;7.57;;;7.50;99.90;;;;;;6191383;23;20004;-90
2021/10/19 06:30:32;;;;;;;10.45;7.25;;;7.50;99.90;;;;;;6190954;23;20005;-89
2021/10/19 06:32:58;;;;;;;9.95;6.70;;;7.60;99.90;;;;;;6193683;23;20008;-90
2021/10/19 06:35:27;;;;;;;12.80;7.03;;;7.70;99.90;;;;;;6192977;23;20488;-92
2021/10/19 06:37:53;;;;;;;9.85;7.15;;;7.70;99.90;;;;;;6192688;23;20001;-90
2021/10/19 06:40:22;;;;;;;9.65;6.95;;;7.70;99.90;;;;;;6192966;23;20027;-89
2021/10/19 06:42:50;;;;;;;10.27;6.45;;;7.70;99.90;;;;;;6218728;23;20032;-91
2021/10/19 06:45:16;;;;;;;9.23;6.35;;;7.80;99.90;;;;;;6195550;23;20084;-90
2021/10/19 06:47:45;;;;;;;8.73;5.60;;;7.90;99.60;;;;;;6194794;23;20008;-90
2021/10/19 06:50:32;;;;;;;9.40;6.65;;;8.00;99.60;;;;;;6192767;23;20000;-90
2021/10/19 06:53:07;;;;;;;;;;;;;;;;;;;;;
2021/10/19 06:56:03;;;;;;;9.68;5.15;;;8.10;98.90;;;;;;6222874;23;20033;-91
2021/10/19 06:58:45;;;;;;;8.57;5.00;;;8.20;98.30;;;;;;6202001;23;20000;-92
2021/10/19 07:01:19;;;;;;;11.38;5.57;;;8.20;98.00;;;;;;6197029;23;20450;-91
2021/10/19 07:04:03;;;;;;;8.00;5.40;;;8.20;97.80;;;;;;6195893;23;20367;-90
2021/10/19 07:06:41;;;;;;;;;;;;;;;;;;;;;
2021/10/19 07:09:19;;;;;;;8.13;5.28;;;8.30;97.70;;;;;;6223207;23;20051;-90
2021/10/19 07:11:53;;;;;;;6.93;4.45;;;8.40;97.10;;;;;;6196381;23;19997;-92
2021/10/19 07:14:21;;;;;;;13.25;5.60;;;8.40;96.50;;;;;;6196744;23;20054;-92
2021/10/19 07:16:51;;;;;;;7.50;4.30;;;8.50;96.60;;;;;;6197634;23;20064;-91
2021/10/19 07:19:38;;;;;;;13.57;5.78;;;8.50;95.50;;;;;;6198720;23;20028;-95
2021/10/19 07:22:35;;;;;;;8.60;4.95;;;8.60;95.40;;;;;;6202181;23;20072;-95
2021/10/19 07:25:18;;;;;;;11.20;7.25;;;8.70;96.00;;;;;;6196685;23;20012;-93
2021/10/19 07:27:44;;;;;;;8.75;4.72;;;8.80;95.80;;;;;;6195025;23;19996;-93
2021/10/19 07:30:42;;;;;;;14.32;7.95;;;8.90;96.00;;;;;;6194609;23;20000;-93
2021/10/19 07:33:38;;;;;;;9.95;6.80;;;9.00;94.30;;;;;;6223124;23;20368;-92
2021/10/19 07:36:19;;;;;;;11.18;6.20;;;8.90;94.70;;;;;;6198145;23;20000;-92
2021/10/19 07:38:49;;;;;;;8.82;5.38;;;8.90;94.00;;;;;;6198586;23;20087;-91
2021/10/19 07:41:18;;;;;;;7.72;5.78;;;8.90;93.20;;;;;;6227871;23;20001;-91
2021/10/19 07:43:44;;;;;;;8.75;5.75;;;8.90;93.00;;;;;;6198741;23;20015;-93
2021/10/19 07:46:10;;;;;;;6.35;4.43;;;8.90;93.00;;;;;;6226838;23;20005;-92
2021/10/19 07:48:36;;;;;;;7.20;4.78;;;8.90;93.30;;;;;;6199078;23;20384;-94
2021/10/19 07:51:04;;;;;;;6.63;4.88;;;8.90;93.00;;;;;;6201225;23;20505;-92
2021/10/19 07:53:30;;;;;;;9.25;4.15;;;9.00;93.10;;;;;;6227964;23;20045;-92
2021/10/19 07:55:58;;;;;;;7.38;4.97;;;9.10;92.50;;;;;;6201771;23;20000;-90
2021/10/19 07:58:27;;;;;;;8.73;5.05;;;9.10;92.10;;;;;;6200180;23;20352;-92
2021/10/19 08:00:54;;;;;;;9.50;5.18;;;9.20;92.10;;;;;;6200192;23;19997;-92
2021/10/19 08:03:33;;;;;;;6.50;4.32;;;9.30;91.30;;;;;;6201029;23;20012;-94
2021/10/19 08:06:01;;;;;;;6.95;4.40;;;9.40;90.10;;;;;;6199497;23;20055;-93
2021/10/19 08:08:27;;;;;;;6.57;4.00;;;9.40;87.00;;;;;;6202324;23;20000;-91
2021/10/19 08:10:54;;;;;;;10.18;5.47;;;9.40;86.20;;;;;;6201769;23;20012;-91
2021/10/19 08:13:19;;;;;;;7.95;4.50;;;9.40;83.90;;;;;;6198754;23;20028;-94
2021/10/19 08:15:56;;;;;;;8.55;3.88;;;9.40;81.60;;;;;;6199017;23;20001;-91
2021/10/19 08:18:31;;;;;;;7.78;4.28;;;9.40;80.70;;;;;;6199558;23;20429;-95
2021/10/19 08:21:06;;;;;;;5.22;3.65;;;9.50;78.60;;;;;;6197821;23;20054;-92
2021/10/19 08:23:40;;;;;;;4.55;2.85;;;9.50;77.30;;;;;;6200695;23;20446;-93
2021/10/19 08:26:06;;;;;;;4.93;3.00;;;9.60;74.70;;;;;;6202483;23;20011;-92
2021/10/19 08:28:31;;;;;;;2.80;2.45;;;9.70;77.30;;;;;;6196515;23;20312;-92
2021/10/19 08:31:01;;;;;;;3.95;2.42;;;9.80;76.00;;;;;;6194407;23;20072;-91
2021/10/19 08:33:27;;;;;;;3.80;2.17;;;9.80;74.50;;;;;;6197581;23;20027;-92
2021/10/19 08:35:58;;;;;;;4.60;2.88;;;9.90;76.20;;;;;;6196815;23;20364;-92
2021/10/19 08:38:45;;;;;;;2.75;2.42;;;10.00;73.90;;;;;;6195743;23;20001;-92
2021/10/19 08:41:17;;;;;;;3.53;2.38;;;10.00;75.70;;;;;;6193755;23;20005;-92
2021/10/19 08:43:46;;;;;;;2.97;2.65;;;10.10;73.70;;;;;;6193553;23;20005;-91
2021/10/19 08:46:22;;;;;;;4.50;2.58;;;10.20;73.10;;;;;;6194435;23;20008;-93
2021/10/19 08:48:51;;;;;;;3.95;2.85;;;10.30;72.90;;;;;;6193764;23;20012;-93
2021/10/19 08:51:17;;;;;;;3.95;2.72;;;10.40;69.50;;;;;;6192269;23;20060;-92
2021/10/19 08:53:43;;;;;;;7.70;3.40;;;10.40;72.40;;;;;;6193877;23;20013;-90
2021/10/19 08:56:09;;;;;;;3.65;2.50;;;10.50;71.70;;;;;;6194244;23;20005;-93
2021/10/19 08:58:45;;;;;;;;;;;;;;;;;;;;;
2021/10/19 09:01:11;;;;;;;6.75;3.60;;;10.70;68.70;;;;;;6219910;23;20374;-92
2021/10/19 09:03:50;;;;;;;5.70;3.45;;;10.90;67.10;;;;;;6196860;23;20009;-91
2021/10/19 09:06:17;;;;;;;6.35;3.13;;;10.90;65.40;;;;;;6193312;23;20027;-91
2021/10/19 09:08:48;;;;;;;2.80;2.17;;;10.80;65.70;;;;;;6199943;23;20008;-92
2021/10/19 09:11:19;;;;;;;4.20;2.78;;;10.80;63.30;;;;;;6197007;23;20389;-93
2021/10/19 09:13:58;;;;;;;7.35;3.28;;;10.70;66.40;;;;;;6204586;23;20039;-93
2021/10/19 09:16:40;;;;;;;6.07;3.35;;;10.70;67.50;;;;;;6208319;23;20000;-94
2021/10/19 09:19:22;;;;;;;5.25;2.92;;;10.70;66.90;;;;;;6208008;23;20008;-94
2021/10/19 09:21:57;;;;;;;3.88;2.33;;;10.70;63.90;;;;;;6195872;23;20024;-91
2021/10/19 09:24:45;;;;;;;4.43;2.28;;;10.70;64.30;;;;;;6195170;23;19989;-91
2021/10/19 09:27:16;;;;;;;6.07;2.33;;;10.70;62.50;;;;;;6202123;23;20432;-93
2021/10/19 09:29:49;;;;;;;3.05;2.38;;;10.60;64.00;;;;;;6189157;23;20001;-91
2021/10/19 09:32:18;;;;;;;;;;;10.60;62.40;;;;;;6189660;23;20036;-92
2021/10/19 09:34:49;;;;;;;1.70;1.60;;;10.60;60.20;;;;;;6188700;23;19907;-93
2021/10/19 09:37:23;;;;;;;2.45;2.08;;;10.40;61.40;;;;;;6188443;23;20006;-89
2021/10/19 09:39:58;;;;;;;2.55;1.90;;;10.40;62.90;;;;;;6189938;23;20001;-92
2021/10/19 09:42:26;;;;;;;2.97;1.85;;;10.40;63.30;;;;;;6188444;23;20028;-92
2021/10/19 09:45:16;;;;;;;3.75;2.25;;;10.50;64.20;;;;;;6191753;23;20013;-93
2021/10/19 09:47:58;;;;;;;2.58;1.90;;;10.60;62.00;;;;;;6190680;23;20073;-95
2021/10/19 09:50:36;;;;;;;3.28;2.05;;;10.70;61.70;;;;;;6186775;23;20141;-93
2021/10/19 09:53:41;;;;;;;;;;;;;;;;;;;;;
2021/10/19 09:56:25;;;;;;;3.58;2.55;;;10.70;62.20;;;;;;6191753;23;20028;-93
2021/10/19 09:59:02;;;;;;;3.95;2.25;;;10.70;59.60;;;;;;6191896;23;20001;-93
2021/10/19 10:01:31;;;;;;;3.28;1.92;;;10.60;59.30;;;;;;6189691;23;20008;-92
2021/10/19 10:04:29;;;;;;;3.60;2.80;;;10.60;60.50;;;;;;6189513;23;20005;-94
2021/10/19 10:12:08;;;;;;;4.15;3.00;;;10.40;61.20;;;;;;6111193;23;20228;-94
2021/10/19 10:14:48;;;;;;;3.45;2.45;;;10.40;60.30;;;;;;6161806;23;20021;-92
2021/10/19 10:17:25;;;;;;;2.85;2.30;;;10.40;58.60;;;;;;6162296;23;20421;-94
2021/10/19 10:19:52;;;;;;;2.50;1.60;;;10.50;60.00;;;;;;6159312;23;20089;-93
2021/10/19 10:22:26;;;;;;;2.83;1.75;;;10.40;60.30;;;;;;6157435;23;20060;-92
2021/10/19 10:25:08;;;;;;;;;;;10.50;61.10;;;;;;6158185;23;20014;-94
2021/10/19 10:27:35;;;;;;;2.83;2.35;;;10.60;60.60;;;;;;6159230;23;19900;-92
2021/10/19 10:30:16;;;;;;;3.17;2.13;;;10.50;60.10;;;;;;6158306;23;20306;-92
2021/10/19 10:32:42;;;;;;;3.53;1.80;;;10.40;60.30;;;;;;6158554;23;20009;-95
2021/10/19 10:35:19;;;;;;;3.38;2.22;;;10.50;61.50;;;;;;6158600;23;20056;-92
2021/10/19 10:38:03;;;;;;;1.88;1.48;;;10.50;59.90;;;;;;6159623;23;20456;-92
2021/10/19 10:40:49;;;;;;;2.22;1.23;;;10.60;55.50;;;;;;6158998;23;20013;-93
2021/10/19 10:43:27;;;;;;;2.05;1.52;;;10.60;56.20;;;;;;6158959;23;20006;-93
2021/10/19 10:46:28;;;;;;;1.98;1.60;;;10.60;55.60;;;;;;6156734;23;20009;-93
2021/10/19 10:49:07;;;;;;;2.35;1.45;;;10.50;54.60;;;;;;6157985;23;20006;-94
2021/10/19 10:51:40;;;;;;;2.70;1.75;;;10.50;55.90;;;;;;6158561;23;20005;-95
2021/10/19 10:54:29;;;;;;;3.55;1.90;;;10.50;56.40;;;;;;6160109;23;20001;-92
2021/10/19 10:56:57;;;;;;;2.00;1.45;;;10.60;56.30;;;;;;6155819;23;20310;-92
2021/10/19 10:59:35;;;;;;;3.72;1.33;;;10.70;55.40;;;;;;6155612;23;20002;-92
2021/10/19 11:02:19;;;;;;;2.05;1.60;;;10.70;55.20;;;;;;6155098;23;20002;-93
2021/10/19 11:04:49;;;;;;;1.80;1.23;;;10.80;53.80;;;;;;6156646;23;20009;-90
2021/10/19 11:07:37;;;;;;;3.33;1.67;;;10.80;53.40;;;;;;6158168;23;20060;-91
2021/10/19 11:10:18;;;;;;;3.40;1.20;;;10.90;52.60;;;;;;6156334;23;20009;-91
2021/10/19 11:12:52;;;;;;;1.63;1.23;;;10.90;53.20;;;;;;6155893;23;20491;-91
2021/10/19 11:15:47;;;;;;;1.10;1.02;;;10.90;53.60;;;;;;6185708;23;20064;-91
2021/10/19 11:18:20;;;;;;;1.85;1.00;;;11.00;55.30;;;;;;6186470;23;20013;-90
2021/10/19 11:20:59;;;;;;;2.33;1.33;;;11.10;55.30;;;;;;6160784;23;20131;-89
2021/10/19 11:23:32;;;;;;;1.40;0.93;;;11.10;51.90;;;;;;6160949;23;20028;-90
2021/10/19 11:25:59;;;;;;;2.05;1.42;;;11.10;53.50;;;;;;6161136;23;20060;-89
2021/10/19 11:28:25;;;;;;;2.03;1.58;;;11.10;50.90;;;;;;6160843;23;20001;-89
2021/10/19 11:30:51;;;;;;;1.98;1.60;;;11.10;50.50;;;;;;6135506;23;20028;-88
2021/10/19 11:33:50;;;;;;;;;;;;;;;;;;;;;
2021/10/19 11:36:28;;;;;;;2.58;1.23;;;11.10;50.80;;;;;;6192180;23;20072;-89
2021/10/19 11:39:17;;;;;;;3.85;1.42;;;11.00;51.30;;;;;;6170810;23;20065;-89
2021/10/19 11:41:57;;;;;;;3.38;1.80;;;11.00;49.20;;;;;;6168177;23;20013;-90
2021/10/19 11:44:46;;;;;;;1.23;1.13;;;11.00;49.40;;;;;;6192674;23;20067;-91
2021/10/19 11:47:18;;;;;;;1.42;1.33;;;11.00;50.20;;;;;;6166160;23;20058;-90
2021/10/19 11:49:47;;;;;;;2.15;1.45;;;11.00;50.70;;;;;;6140927;23;20012;-88
2021/10/19 11:52:14;;;;;;;1.27;1.17;;;11.00;49.70;;;;;;6167602;23;20016;-89
2021/10/19 11:54:40;;;;;;;3.58;1.58;;;11.00;47.50;;;;;;6166622;23;20440;-90
2021/10/19 11:57:15;;;;;;;1.20;1.10;;;11.00;48.60;;;;;;6188496;23;20001;-90
2021/10/19 11:59:43;;;;;;;2.25;1.08;;;11.00;47.50;;;;;;6163438;23;20004;-89
2021/10/19 12:02:34;;;;;;;1.65;1.10;;;11.00;47.90;;;;;;6136386;23;20119;-91
2021/10/19 12:05:12;;;;;;;1.67;1.02;;;11.00;48.40;;;;;;6160033;23;20049;-89
2021/10/19 12:08:12;;;;;;;4.10;1.42;;;11.00;47.20;;;;;;6167479;23;20096;-90
2021/10/19 12:10:51;;;;;;;2.25;1.33;;;10.90;46.30;;;;;;6191085;23;20015;-86
2021/10/19 12:13:26;;;;;;;2.10;1.25;;;10.90;47.00;;;;;;6168812;23;20021;-87
2021/10/19 12:15:58;;;;;;;3.53;1.60;;;10.90;47.70;;;;;;6195230;23;19997;-89
2021/10/19 12:18:37;;;;;;;4.75;1.35;;;10.90;47.20;;;;;;6168822;23;20073;-90
2021/10/19 12:21:24;;;;;;;3.53;1.60;;;10.90;46.80;;;;;;6170203;23;20009;-90
2021/10/19 12:24:13;;;;;;;4.15;2.28;;;10.90;46.70;;;;;;6169660;23;20012;-89
2021/10/19 12:26:57;;;;;;;2.60;1.58;;;10.90;46.10;;;;;;6168958;23;20001;-90
2021/10/19 12:29:33;;;;;;;2.42;1.50;;;10.90;45.50;;;;;;6169563;23;20531;-92
2021/10/19 12:32:09;;;;;;;2.72;1.58;;;10.90;46.10;;;;;;6170503;23;20005;-90
2021/10/19 12:34:39;;;;;;;2.78;1.55;;;11.00;46.60;;;;;;6148550;23;20016;-93
2021/10/19 12:37:10;;;;;;;2.17;1.67;;;11.00;47.20;;;;;;6168575;23;20004;-91
2021/10/19 12:40:04;;;;;;;1.92;1.75;;;11.10;47.20;;;;;;6199826;23;20002;-90
2021/10/19 12:42:45;;;;;;;1.15;1.08;;;11.10;46.60;;;;;;6201172;23;20005;-90
2021/10/19 12:45:23;;;;;;;2.63;1.90;;;11.10;46.50;;;;;;6201744;23;20064;-90
2021/10/19 12:48:11;;;;;;;2.47;1.30;;;11.10;46.20;;;;;;6170139;23;20429;-90
2021/10/19 12:50:54;;;;;;;1.85;1.17;;;11.10;45.40;;;;;;6170888;23;20009;-91
2021/10/19 12:53:49;;;;;;;;;;;;;;;;;;;;;
2021/10/19 12:57:03;;;;;;;8.73;1.50;;;11.10;46.40;;;;;;6188190;23;20029;-91
2021/10/19 12:59:33;;;;;;;1.65;1.45;;;11.20;45.80;;;;;;6165698;23;20012;-91
2021/10/19 13:02:07;;;;;;;2.63;1.55;;;11.30;46.30;;;;;;6166428;23;20005;-90
2021/10/19 13:05:01;;;;;;;;;;;;;;;;;;;;;
2021/10/19 13:08:01;;;;;;;4.15;1.95;;;11.40;46.00;;;;;;6194737;23;20011;-89
2021/10/19 13:11:01;;;;;;;1.37;1.03;;;11.40;46.60;;;;;;6151543;23;20005;-91
2021/10/19 13:13:48;;;;;;;;;;;;;;;;;;;;;
2021/10/19 13:16:27;;;;;;;1.65;1.20;;;11.60;47.30;;;;;;6171665;23;20036;-89
2021/10/19 13:19:04;;;;;;;1.48;1.17;;;11.70;47.90;;;;;;6194463;23;20145;-89
2021/10/19 13:22:07;;;;;;;1.90;1.45;;;11.90;48.00;;;;;;6166074;23;20008;-90
2021/10/19 13:25:20;;;;;;;5.55;1.48;;;12.10;47.10;;;;;;6163149;23;20032;-90
2021/10/19 13:27:47;;;;;;;2.47;1.77;;;12.40;46.40;;;;;;6158609;23;20009;-90
2021/10/19 13:30:16;;;;;;;2.10;1.58;;;12.80;45.90;;;;;;6192633;23;19993;-89